Mr T — WSD5840 — position and weather

sailwx.info

Track history (hours):
 
Tides and Currents Weather Stations Pressure Air Temp Water Temp Dewpoint Dewpoint Depression Visibility Wind Speed Wind Dir Waves Ship Positions

Mr T

Owner: GULF SOUTH MARINE TRANSPORTATION, INC, NEW ORLEANS, LA. More information available from US FCC via Universal Licensing System and Coast Guard Vessel Documentation Center.

Last reported at 2017-Nov-13 01:48 UTC. Time now 2017-Nov-22 18:39 UTC.
Position N 29°35' W 090°58'.
Warning: this ship's position is 9 days out of date.

Length 19 m; draft 2.8 m.

Type: Towing. MMSI: 367006230.

Date/timePositionNaut miles runAvg speedWind from/ knotsBaromVisibWave heightAir tempDewpointWater temp
2017-Nov-13 01:48N 29°35' W 090°58'65 2.3
2017-Nov-11 21:39N 29°47' W 092°11'0 1.9
2017-Nov-11 21:29N 29°47' W 092°11'1 2.3
2017-Nov-11 20:59N 29°47' W 092°13'1 1.8
2017-Nov-11 20:29N 29°48' W 092°14'0 0.0
2017-Nov-11 19:59N 29°48' W 092°14'0 0.0
2017-Nov-11 19:29N 29°48' W 092°14'0 0.1
2017-Nov-11 18:59N 29°48' W 092°14'0 0.0
2017-Nov-11 18:29N 29°48' W 092°14'0 0.0
2017-Nov-11 17:59N 29°48' W 092°14'0 1.0
2017-Nov-11 17:29N 29°48' W 092°14'0 0.4
2017-Nov-11 16:59N 29°48' W 092°14'0 0.0
2017-Nov-11 16:29N 29°48' W 092°14'75 2.5
2017-Nov-10 10:57N 30°04' W 093°39'3 6.2
2017-Nov-10 10:25N 30°04' W 093°35'3 6.1
2017-Nov-10 10:00N 30°04' W 093°32'3 6.4
2017-Nov-10 09:30N 30°04' W 093°28'3 6.5
2017-Nov-10 09:00N 30°04' W 093°25'2 4.6
2017-Nov-10 08:30N 30°04' W 093°22'0 0.0
2017-Nov-10 08:00N 30°04' W 093°22'0 0.0
2017-Nov-10 07:30N 30°04' W 093°22'0 0.1
2017-Nov-10 07:00N 30°04' W 093°22'1 1.1
2017-Nov-10 06:30N 30°04' W 093°21'2 3.8
2017-Nov-10 06:00N 30°05' W 093°20'1 2.1
2017-Nov-10 05:30N 30°06' W 093°19'1 2.4
2017-Nov-10 05:00N 30°05' W 093°18'1 1.0
2017-Nov-10 04:30N 30°05' W 093°17'1 1.8
2017-Nov-10 04:00N 30°05' W 093°16'1 2.0
2017-Nov-10 03:30N 30°04' W 093°16'1 2.7
2017-Nov-10 03:00N 30°02' W 093°16'2 3.8
2017-Nov-10 02:30N 30°01' W 093°14'2 4.8
2017-Nov-10 02:00N 29°59' W 093°12'3 5.4
2017-Nov-10 01:30N 29°57' W 093°10'3 4.3
2017-Nov-10 00:46N 29°56' W 093°07'2 4.0
2017-Nov-10 00:19N 29°56' W 093°05'38 4.5
2017-Nov-09 15:55N 29°51' W 092°22'2 4.5
2017-Nov-09 15:30N 29°50' W 092°20'2 4.1
2017-Nov-09 15:00N 29°50' W 092°18'2 4.6
2017-Nov-09 14:30N 29°48' W 092°15'2 4.8
2017-Nov-09 14:00N 29°47' W 092°13'2 3.7
2017-Nov-09 13:30N 29°47' W 092°11'2 4.3
2017-Nov-09 13:00N 29°47' W 092°08'2 4.9
2017-Nov-09 12:30N 29°48' W 092°06'2 4.9
2017-Nov-09 12:00N 29°49' W 092°03'2 4.9
2017-Nov-09 11:30N 29°50' W 092°01'3 5.0
2017-Nov-09 11:00N 29°50' W 091°58'3 5.1
2017-Nov-09 10:30N 29°51' W 091°55'5 4.5
2017-Nov-09 09:28N 29°50' W 091°50'54 4.2
2017-Nov-08 20:38N 29°32' W 090°51'1 5.1
2017-Nov-08 20:30N 29°32' W 090°51'2 5.0
2017-Nov-08 20:00N 29°32' W 090°48'2 4.3
2017-Nov-08 19:30N 29°33' W 090°45'2 3.8
2017-Nov-08 19:00N 29°34' W 090°43'2 4.0
2017-Nov-08 18:30N 29°36' W 090°43'2 3.1
2017-Nov-08 18:00N 29°36' W 090°41'2 4.1
2017-Nov-08 17:30N 29°36' W 090°39'2 4.3
2017-Nov-08 17:00N 29°35' W 090°37'2 3.2
2017-Nov-08 16:30N 29°34' W 090°35'3 5.0
2017-Nov-08 16:00N 29°34' W 090°32'3 5.2
2017-Nov-08 15:29N 29°34' W 090°29'3 4.6
2017-Nov-08 14:50N 29°33' W 090°25'0 0.2
2017-Nov-08 14:25N 29°33' W 090°25'0 0.0
2017-Nov-08 13:58N 29°33' W 090°25'0 0.0
2017-Nov-08 13:27N 29°33' W 090°25'0 0.0
2017-Nov-08 12:53N 29°33' W 090°25'0 0.0
2017-Nov-08 12:19N 29°33' W 090°25'0 0.0
2017-Nov-08 11:58N 29°33' W 090°25'0 0.0
2017-Nov-08 11:30N 29°33' W 090°25'0 0.0
2017-Nov-08 10:49N 29°33' W 090°25'0 0.0
2017-Nov-08 10:27N 29°33' W 090°25'0 0.0
2017-Nov-08 09:59N 29°33' W 090°25'0 0.0
2017-Nov-08 09:30N 29°33' W 090°25'0 0.0
2017-Nov-08 09:00N 29°33' W 090°25'  
Track history (hours):
 
Tides and Currents Weather Stations Pressure Air Temp Water Temp Dewpoint Dewpoint Depression Visibility Wind Speed Wind Dir Waves Ship Positions

Mr T

Owner: GULF SOUTH MARINE TRANSPORTATION, INC, NEW ORLEANS, LA. More information available from US FCC via Universal Licensing System and Coast Guard Vessel Documentation Center.

Last reported at 2017-Nov-13 01:48 UTC. Time now 2017-Nov-22 18:39 UTC.
Position N 29°35' W 090°58'.
Warning: this ship's position is 9 days out of date.

Length 19 m; draft 2.8 m.

Type: Towing. MMSI: 367006230.

Date/timePositionNaut miles runAvg speedWind from/ knotsBaromVisibWave heightAir tempDewpointWater temp
2017-Nov-13 01:48N 29°35' W 090°58'65 2.3
2017-Nov-11 21:39N 29°47' W 092°11'0 1.9
2017-Nov-11 21:29N 29°47' W 092°11'1 2.3
2017-Nov-11 20:59N 29°47' W 092°13'1 1.8
2017-Nov-11 20:29N 29°48' W 092°14'0 0.0
2017-Nov-11 19:59N 29°48' W 092°14'0 0.0
2017-Nov-11 19:29N 29°48' W 092°14'0 0.1
2017-Nov-11 18:59N 29°48' W 092°14'0 0.0
2017-Nov-11 18:29N 29°48' W 092°14'0 0.0
2017-Nov-11 17:59N 29°48' W 092°14'0 1.0
2017-Nov-11 17:29N 29°48' W 092°14'0 0.4
2017-Nov-11 16:59N 29°48' W 092°14'0 0.0
2017-Nov-11 16:29N 29°48' W 092°14'75 2.5
2017-Nov-10 10:57N 30°04' W 093°39'3 6.2
2017-Nov-10 10:25N 30°04' W 093°35'3 6.1
2017-Nov-10 10:00N 30°04' W 093°32'3 6.4
2017-Nov-10 09:30N 30°04' W 093°28'3 6.5
2017-Nov-10 09:00N 30°04' W 093°25'2 4.6
2017-Nov-10 08:30N 30°04' W 093°22'0 0.0
2017-Nov-10 08:00N 30°04' W 093°22'0 0.0
2017-Nov-10 07:30N 30°04' W 093°22'0 0.1
2017-Nov-10 07:00N 30°04' W 093°22'1 1.1
2017-Nov-10 06:30N 30°04' W 093°21'2 3.8
2017-Nov-10 06:00N 30°05' W 093°20'1 2.1
2017-Nov-10 05:30N 30°06' W 093°19'1 2.4
2017-Nov-10 05:00N 30°05' W 093°18'1 1.0
2017-Nov-10 04:30N 30°05' W 093°17'1 1.8
2017-Nov-10 04:00N 30°05' W 093°16'1 2.0
2017-Nov-10 03:30N 30°04' W 093°16'1 2.7
2017-Nov-10 03:00N 30°02' W 093°16'2 3.8
2017-Nov-10 02:30N 30°01' W 093°14'2 4.8
2017-Nov-10 02:00N 29°59' W 093°12'3 5.4
2017-Nov-10 01:30N 29°57' W 093°10'3 4.3
2017-Nov-10 00:46N 29°56' W 093°07'2 4.0
2017-Nov-10 00:19N 29°56' W 093°05'38 4.5
2017-Nov-09 15:55N 29°51' W 092°22'2 4.5
2017-Nov-09 15:30N 29°50' W 092°20'2 4.1
2017-Nov-09 15:00N 29°50' W 092°18'2 4.6
2017-Nov-09 14:30N 29°48' W 092°15'2 4.8
2017-Nov-09 14:00N 29°47' W 092°13'2 3.7
2017-Nov-09 13:30N 29°47' W 092°11'2 4.3
2017-Nov-09 13:00N 29°47' W 092°08'2 4.9
2017-Nov-09 12:30N 29°48' W 092°06'2 4.9
2017-Nov-09 12:00N 29°49' W 092°03'2 4.9
2017-Nov-09 11:30N 29°50' W 092°01'3 5.0
2017-Nov-09 11:00N 29°50' W 091°58'3 5.1
2017-Nov-09 10:30N 29°51' W 091°55'5 4.5
2017-Nov-09 09:28N 29°50' W 091°50'54 4.2
2017-Nov-08 20:38N 29°32' W 090°51'1 5.1
2017-Nov-08 20:30N 29°32' W 090°51'2 5.0
2017-Nov-08 20:00N 29°32' W 090°48'2 4.3
2017-Nov-08 19:30N 29°33' W 090°45'2 3.8
2017-Nov-08 19:00N 29°34' W 090°43'2 4.0
2017-Nov-08 18:30N 29°36' W 090°43'2 3.1
2017-Nov-08 18:00N 29°36' W 090°41'2 4.1
2017-Nov-08 17:30N 29°36' W 090°39'2 4.3
2017-Nov-08 17:00N 29°35' W 090°37'2 3.2
2017-Nov-08 16:30N 29°34' W 090°35'3 5.0
2017-Nov-08 16:00N 29°34' W 090°32'3 5.2
2017-Nov-08 15:29N 29°34' W 090°29'3 4.6
2017-Nov-08 14:50N 29°33' W 090°25'0 0.2
2017-Nov-08 14:25N 29°33' W 090°25'0 0.0
2017-Nov-08 13:58N 29°33' W 090°25'0 0.0
2017-Nov-08 13:27N 29°33' W 090°25'0 0.0
2017-Nov-08 12:53N 29°33' W 090°25'0 0.0
2017-Nov-08 12:19N 29°33' W 090°25'0 0.0
2017-Nov-08 11:58N 29°33' W 090°25'0 0.0
2017-Nov-08 11:30N 29°33' W 090°25'0 0.0
2017-Nov-08 10:49N 29°33' W 090°25'0 0.0
2017-Nov-08 10:27N 29°33' W 090°25'0 0.0
2017-Nov-08 09:59N 29°33' W 090°25'0 0.0
2017-Nov-08 09:30N 29°33' W 090°25'0 0.0
2017-Nov-08 09:00N 29°33' W 090°25'  

Dump ship's entire track history